Time;durP1;ratioP1;P1;durP2;ratioP2;P2;SDS_P1;SDS_P2;PMS_P1;PMS_P2;Temp;Humidity;BMP_temperature;BMP_pressure;BME280_temperature;BME280_humidity;BME280_pressure;Samples;Min_cycle;Max_cycle;Signal;HPM_P1;HPM_P2
2022/12/22 03:27:16;;;;;;;1.60;1.35;;;9.30;99.90;;;;;;5003720;28;20037;-80
2022/12/22 03:29:41;;;;;;;1.83;1.30;;;9.30;99.90;;;;;;5008786;28;20033;-81
2022/12/22 03:32:07;;;;;;;1.98;1.20;;;9.30;99.90;;;;;;4980984;28;20033;-80
2022/12/22 03:34:32;;;;;;;1.20;1.10;;;9.30;99.90;;;;;;4991192;28;20701;-80
2022/12/22 03:36:58;;;;;;;1.20;1.10;;;9.30;99.90;;;;;;4988985;28;20548;-80
2022/12/22 03:39:24;;;;;;;3.35;1.40;;;9.30;99.90;;;;;;4991582;28;20508;-81
2022/12/22 03:47:18;;;;;;;1.15;1.05;;;9.30;99.90;;;;;;4989894;28;20092;-82
2022/12/22 03:49:43;;;;;;;1.27;1.10;;;9.30;99.90;;;;;;4987284;28;20474;-82
2022/12/22 03:52:09;;;;;;;1.65;1.40;;;9.30;99.90;;;;;;4986043;28;20088;-82
2022/12/22 03:54:34;;;;;;;1.50;1.33;;;9.30;99.90;;;;;;5002366;28;20038;-82
2022/12/22 03:57:00;;;;;;;1.67;1.10;;;9.30;99.90;;;;;;4986816;28;20029;-82
2022/12/22 03:59:25;;;;;;;1.92;1.13;;;9.30;99.90;;;;;;4991847;28;20030;-82
2022/12/22 04:01:52;;;;;;;2.88;1.50;;;9.30;99.90;;;;;;4987294;28;20042;-82
2022/12/22 04:04:18;;;;;;;1.00;0.90;;;9.30;99.90;;;;;;4983752;28;20121;-82
2022/12/22 04:06:44;;;;;;;1.55;1.30;;;9.30;99.90;;;;;;4994936;28;20493;-82
2022/12/22 04:09:10;;;;;;;1.27;1.10;;;9.30;99.90;;;;;;4990802;28;20113;-82
2022/12/22 04:14:20;;;;;;;2.20;0.88;;;9.30;99.90;;;;;;5001871;28;20084;-82
2022/12/22 04:16:46;;;;;;;1.13;0.85;;;9.40;99.90;;;;;;4994524;28;20503;-82
2022/12/22 04:19:12;;;;;;;1.25;0.88;;;9.30;99.90;;;;;;4985891;28;20037;-82
2022/12/22 04:21:37;;;;;;;2.67;0.88;;;9.40;99.90;;;;;;4990500;28;20049;-82
2022/12/22 04:24:03;;;;;;;3.30;1.10;;;9.40;99.90;;;;;;4988994;28;20048;-81
2022/12/22 04:26:29;;;;;;;1.52;0.75;;;9.40;99.90;;;;;;5002736;28;20084;-82
2022/12/22 04:28:54;;;;;;;1.30;0.95;;;9.40;99.90;;;;;;4985943;28;20029;-82
2022/12/22 04:31:20;;;;;;;1.80;1.10;;;9.40;99.90;;;;;;4981085;28;20038;-82
2022/12/22 04:33:45;;;;;;;1.67;0.90;;;9.40;99.90;;;;;;4997560;28;20410;-83
2022/12/22 04:36:12;;;;;;;1.63;1.27;;;9.40;99.90;;;;;;4981521;28;20030;-82
2022/12/22 04:38:38;;;;;;;0.88;0.88;;;9.40;99.90;;;;;;4994800;28;20141;-82
2022/12/22 04:41:03;;;;;;;1.20;0.70;;;9.40;99.90;;;;;;4979941;28;20046;-82
2022/12/22 04:43:29;;;;;;;0.98;0.88;;;9.40;99.90;;;;;;4995462;28;20054;-82
2022/12/22 04:45:55;;;;;;;2.28;1.00;;;9.40;99.90;;;;;;4983832;28;20030;-82
2022/12/22 04:48:20;;;;;;;1.05;0.82;;;9.40;99.90;;;;;;4984914;28;20787;-82
2022/12/22 04:50:49;;;;;;;0.68;0.65;;;9.40;99.90;;;;;;4978512;28;20034;-82
2022/12/22 04:53:14;;;;;;;1.17;1.08;;;9.50;99.90;;;;;;4984542;28;20081;-82
2022/12/22 04:55:53;;;;;;;2.45;0.82;;;9.50;99.90;;;;;;4998017;28;20030;-82
2022/12/22 04:58:19;;;;;;;1.17;0.80;;;9.40;99.90;;;;;;4984474;28;20549;-82
2022/12/22 05:00:44;;;;;;;1.17;1.00;;;9.50;99.90;;;;;;4995461;28;20137;-82
2022/12/22 05:03:10;;;;;;;1.27;0.82;;;9.50;99.90;;;;;;4981063;28;20444;-82
2022/12/22 05:05:35;;;;;;;1.27;1.00;;;9.50;99.90;;;;;;4996051;28;20128;-83
2022/12/22 05:08:01;;;;;;;0.88;0.80;;;9.50;99.90;;;;;;5000851;28;20088;-82
2022/12/22 05:10:27;;;;;;;1.50;1.40;;;9.50;99.90;;;;;;4988887;28;20026;-82
2022/12/22 05:12:53;;;;;;;2.65;1.30;;;9.50;99.90;;;;;;4996190;28;20037;-83
2022/12/22 05:15:26;;;;;;;0.98;0.80;;;9.50;99.90;;;;;;4998784;28;20038;-82
2022/12/22 05:17:51;;;;;;;1.15;1.02;;;9.50;99.90;;;;;;4988301;28;20463;-82
2022/12/22 05:20:17;;;;;;;1.05;0.95;;;9.50;99.90;;;;;;4994892;28;20053;-82
2022/12/22 05:22:43;;;;;;;1.65;1.13;;;9.50;99.90;;;;;;4998410;28;20040;-83
2022/12/22 05:25:08;;;;;;;1.75;0.80;;;9.50;99.90;;;;;;4979692;28;20042;-83
2022/12/22 05:27:34;;;;;;;1.95;1.10;;;9.50;99.90;;;;;;4995110;28;20125;-83
2022/12/22 05:30:00;;;;;;;1.45;1.05;;;9.50;99.90;;;;;;4993797;28;20115;-83
2022/12/22 05:32:25;;;;;;;1.15;0.95;;;9.50;99.90;;;;;;4996591;28;20441;-83
2022/12/22 05:34:51;;;;;;;1.42;1.33;;;9.50;99.90;;;;;;4982617;28;20551;-82
2022/12/22 05:37:16;;;;;;;4.22;1.67;;;9.50;99.90;;;;;;4999557;28;20506;-82
2022/12/22 05:39:42;;;;;;;1.60;1.48;;;9.50;99.90;;;;;;4985261;28;20081;-82
2022/12/22 05:42:07;;;;;;;1.10;0.80;;;9.50;99.90;;;;;;4984511;28;20041;-83
2022/12/22 05:44:33;;;;;;;1.60;1.13;;;9.50;99.90;;;;;;4998566;28;20030;-83
2022/12/22 05:46:58;;;;;;;2.20;1.42;;;9.50;99.90;;;;;;4995099;28;20026;-82
2022/12/22 05:49:24;;;;;;;1.13;1.02;;;9.50;99.90;;;;;;4981268;28;20057;-82
2022/12/22 05:51:52;;;;;;;1.90;1.75;;;9.50;99.90;;;;;;5013434;28;20397;-83
2022/12/22 05:54:18;;;;;;;1.40;1.20;;;9.50;99.90;;;;;;4980252;28;20486;-82
2022/12/22 05:56:44;;;;;;;1.50;1.40;;;9.50;99.90;;;;;;4977598;28;20030;-82
2022/12/22 05:59:10;;;;;;;1.40;1.10;;;9.50;99.90;;;;;;4984700;28;20037;-83
2022/12/22 06:01:35;;;;;;;1.65;1.40;;;9.50;99.90;;;;;;4994544;28;20032;-83
2022/12/22 06:04:01;;;;;;;2.15;1.48;;;9.50;99.90;;;;;;4983344;28;20071;-83
2022/12/22 06:06:26;;;;;;;1.83;1.65;;;9.50;99.90;;;;;;4991200;28;20032;-83
2022/12/22 06:08:52;;;;;;;1.80;1.30;;;9.50;99.90;;;;;;4990737;28;20050;-83
2022/12/22 06:11:18;;;;;;;2.22;1.63;;;9.60;99.90;;;;;;4986063;28;20034;-83
2022/12/22 06:13:44;;;;;;;3.88;1.63;;;9.50;99.90;;;;;;4979794;28;20481;-82
2022/12/22 06:16:10;;;;;;;2.33;2.05;;;9.50;99.90;;;;;;4981740;28;20434;-82
2022/12/22 06:18:35;;;;;;;1.60;1.50;;;9.50;99.90;;;;;;4998272;28;20038;-83
2022/12/22 06:21:01;;;;;;;1.70;1.55;;;9.50;99.90;;;;;;5000112;28;20056;-84
2022/12/22 06:23:26;;;;;;;1.95;1.73;;;9.60;99.90;;;;;;4986175;28;20041;-83
2022/12/22 06:25:57;;;;;;;4.50;1.55;;;9.50;99.90;;;;;;4996876;28;20394;-84
2022/12/22 06:28:23;;;;;;;3.67;2.75;;;9.60;99.90;;;;;;5004370;28;20062;-85
2022/12/22 06:30:48;;;;;;;4.85;2.83;;;9.50;99.90;;;;;;4987253;28;20042;-83
2022/12/22 06:33:14;;;;;;;5.53;2.40;;;9.50;99.90;;;;;;4967882;28;20034;-83
2022/12/22 06:35:39;;;;;;;7.35;3.60;;;9.50;99.90;;;;;;4984131;28;20679;-82
2022/12/22 06:38:05;;;;;;;2.83;2.05;;;9.60;99.90;;;;;;4978582;28;20025;-82
2022/12/22 06:40:30;;;;;;;4.55;2.47;;;9.60;99.90;;;;;;4990165;28;20409;-83
2022/12/22 06:43:08;;;;;;;5.85;3.35;;;9.50;99.90;;;;;;4986753;28;20543;-82
2022/12/22 06:45:41;;;;;;;5.85;3.83;;;9.50;99.90;;;;;;4999029;28;20493;-82
2022/12/22 06:48:07;;;;;;;6.35;3.38;;;9.50;99.90;;;;;;4987999;28;20056;-82
2022/12/22 06:50:32;;;;;;;4.50;3.50;;;9.50;99.90;;;;;;4992320;28;20545;-83
2022/12/22 06:52:58;;;;;;;5.47;3.50;;;9.50;99.90;;;;;;5000137;28;20113;-83
2022/12/22 06:55:24;;;;;;;4.30;3.90;;;9.50;99.90;;;;;;4987197;28;20123;-83
2022/12/22 06:57:49;;;;;;;3.45;2.95;;;9.50;99.90;;;;;;4991986;28;20409;-83
2022/12/22 07:00:15;;;;;;;8.45;3.53;;;9.50;99.90;;;;;;4977932;28;20433;-84
2022/12/22 07:02:41;;;;;;;5.13;3.47;;;9.50;99.90;;;;;;5005018;28;20033;-83
2022/12/22 07:05:06;;;;;;;2.58;2.00;;;9.50;99.90;;;;;;4989979;28;20034;-84
2022/12/22 07:07:32;;;;;;;2.60;1.90;;;9.50;99.90;;;;;;4989388;28;20034;-83
2022/12/22 07:09:57;;;;;;;3.92;3.45;;;9.50;99.90;;;;;;4996262;28;20037;-84
2022/12/22 07:12:23;;;;;;;4.05;3.53;;;9.50;99.90;;;;;;5004224;28;20033;-83
2022/12/22 07:14:49;;;;;;;9.35;4.63;;;9.60;99.90;;;;;;4979064;28;20042;-83
2022/12/22 07:17:14;;;;;;;4.85;4.35;;;9.50;99.90;;;;;;5005930;28;20029;-83
2022/12/22 07:19:40;;;;;;;6.93;5.20;;;9.50;99.90;;;;;;4969987;28;20478;-83
2022/12/22 07:22:06;;;;;;;5.82;5.22;;;9.50;99.90;;;;;;4992086;28;20524;-83
2022/12/22 07:24:32;;;;;;;7.05;4.95;;;9.50;99.90;;;;;;4986619;28;20052;-83
2022/12/22 07:26:57;;;;;;;8.68;5.90;;;9.60;99.90;;;;;;4987495;28;20397;-83
2022/12/22 07:29:23;;;;;;;7.95;5.57;;;9.60;99.90;;;;;;4984489;28;20034;-83
2022/12/22 07:31:49;;;;;;;13.45;8.38;;;9.60;99.90;;;;;;5008142;28;20054;-83
2022/12/22 07:34:14;;;;;;;11.18;7.53;;;9.50;99.90;;;;;;4975556;28;20591;-83
2022/12/22 07:36:41;;;;;;;12.45;9.25;;;9.60;99.90;;;;;;5001346;28;20521;-83
2022/12/22 07:39:06;;;;;;;15.00;10.00;;;9.60;99.90;;;;;;4976167;28;20544;-84
2022/12/22 07:44:16;;;;;;;11.32;8.68;;;9.60;99.90;;;;;;5002049;28;20053;-84
2022/12/22 07:46:43;;;;;;;19.45;10.98;;;9.60;99.90;;;;;;4980193;28;20541;-84
2022/12/22 07:51:55;;;;;;;14.32;8.50;;;9.60;99.90;;;;;;5007710;28;20044;-85
2022/12/22 07:54:21;;;;;;;17.23;11.32;;;9.60;99.90;;;;;;4991824;28;20469;-84
2022/12/22 07:56:46;;;;;;;21.50;12.40;;;9.70;99.90;;;;;;5002905;28;20099;-83
2022/12/22 07:59:12;;;;;;;23.15;16.25;;;9.70;99.90;;;;;;4991454;28;20037;-83
2022/12/22 08:01:39;;;;;;;17.38;12.00;;;9.70;99.90;;;;;;4984187;28;20457;-83
2022/12/22 08:04:06;;;;;;;24.90;15.32;;;9.70;99.90;;;;;;4987500;28;20434;-83
2022/12/22 08:06:33;;;;;;;24.33;16.00;;;9.70;99.90;;;;;;4985520;28;20044;-83
2022/12/22 08:08:59;;;;;;;27.10;17.73;;;9.70;99.90;;;;;;4993331;28;20130;-82
2022/12/22 08:11:25;;;;;;;38.08;21.45;;;9.70;99.90;;;;;;5003796;28;20454;-83
2022/12/22 08:13:53;;;;;;;22.00;12.55;;;9.70;99.90;;;;;;5002544;28;20061;-85
2022/12/22 08:16:20;;;;;;;43.38;21.90;;;9.70;99.90;;;;;;4990875;28;20088;-82
2022/12/22 08:18:45;;;;;;;52.22;25.95;;;9.70;99.90;;;;;;4990967;28;20072;-83
2022/12/22 08:21:11;;;;;;;45.80;20.65;;;9.70;99.90;;;;;;4973632;28;20057;-82
2022/12/22 08:23:36;;;;;;;48.03;21.50;;;9.70;99.90;;;;;;4987594;28;20070;-81
2022/12/22 08:26:21;;;;;;;47.58;23.42;;;9.70;99.90;;;;;;4975606;28;20034;-82
2022/12/22 08:28:52;;;;;;;41.53;18.88;;;9.70;99.90;;;;;;4989627;28;20541;-82
2022/12/22 08:31:18;;;;;;;39.92;20.08;;;9.70;99.90;;;;;;4973941;28;20363;-82
2022/12/22 08:33:43;;;;;;;43.67;20.58;;;9.80;99.90;;;;;;4990654;28;20045;-82
2022/12/22 08:36:09;;;;;;;35.15;17.88;;;9.70;99.90;;;;;;4978084;28;20026;-82
2022/12/22 08:38:35;;;;;;;32.90;17.65;;;9.70;99.90;;;;;;4984467;28;20037;-82
2022/12/22 08:41:01;;;;;;;30.15;15.57;;;9.70;99.90;;;;;;4985475;28;20080;-83
2022/12/22 08:43:27;;;;;;;24.38;13.60;;;9.70;99.90;;;;;;5006929;28;20058;-85
2022/12/22 08:45:53;;;;;;;27.02;15.57;;;9.70;99.90;;;;;;4974331;28;20030;-83
2022/12/22 08:48:18;;;;;;;32.92;16.88;;;9.70;99.90;;;;;;4974436;28;20100;-82
2022/12/22 08:50:44;;;;;;;30.08;14.90;;;9.70;99.90;;;;;;4983796;28;20030;-82
2022/12/22 08:53:10;;;;;;;32.25;15.95;;;9.70;99.90;;;;;;5003808;28;20026;-82
2022/12/22 08:55:36;;;;;;;30.35;15.00;;;9.70;99.90;;;;;;5002801;28;20092;-82
2022/12/22 08:58:02;;;;;;;27.50;14.05;;;9.70;99.90;;;;;;5002472;28;20029;-82
2022/12/22 09:00:27;;;;;;;33.47;16.23;;;9.70;99.90;;;;;;4978847;28;20033;-84
2022/12/22 09:02:53;;;;;;;37.05;16.30;;;9.70;99.90;;;;;;4975175;28;20394;-82
2022/12/22 09:05:18;;;;;;;36.53;16.38;;;9.70;99.90;;;;;;4990146;28;20050;-82
2022/12/22 09:07:46;;;;;;;34.10;14.98;;;9.70;99.90;;;;;;4983783;28;20037;-82
2022/12/22 09:10:11;;;;;;;40.45;17.52;;;9.70;99.90;;;;;;4974472;28;20683;-82
2022/12/22 09:12:37;;;;;;;43.55;18.10;;;9.70;99.90;;;;;;4982096;28;20102;-83
2022/12/22 09:15:03;;;;;;;39.58;17.17;;;9.70;99.90;;;;;;4988983;28;20428;-82
2022/12/22 09:17:28;;;;;;;44.35;18.17;;;9.70;99.90;;;;;;4990133;28;20037;-82
2022/12/22 09:19:56;;;;;;;40.45;17.42;;;9.80;99.90;;;;;;5005077;28;20422;-82
2022/12/22 09:22:21;;;;;;;48.42;20.85;;;9.80;99.90;;;;;;4998597;28;20037;-82
2022/12/22 09:24:47;;;;;;;45.50;17.38;;;9.80;99.90;;;;;;4977711;28;20045;-82
2022/12/22 09:27:12;;;;;;;32.92;15.48;;;9.70;99.90;;;;;;4988798;28;20049;-82
2022/12/22 09:29:40;;;;;;;36.97;17.30;;;9.80;99.90;;;;;;4973153;28;20045;-80
2022/12/22 09:32:06;;;;;;;42.47;19.60;;;9.90;99.90;;;;;;4991287;28;20485;-82
2022/12/22 09:34:31;;;;;;;35.25;17.08;;;9.80;99.90;;;;;;4986637;28;20029;-82
2022/12/22 09:36:57;;;;;;;38.60;17.45;;;9.90;99.90;;;;;;4969878;28;20101;-83
2022/12/22 09:39:22;;;;;;;33.15;16.42;;;9.90;99.90;;;;;;4999942;28;20044;-83
2022/12/22 09:41:52;;;;;;;32.42;16.27;;;9.90;99.90;;;;;;4987580;28;20049;-82
2022/12/22 09:44:36;;;;;;;35.17;16.65;;;10.00;99.90;;;;;;4973805;28;20501;-83
2022/12/22 09:47:05;;;;;;;37.53;18.13;;;10.00;99.90;;;;;;4989316;28;20030;-82
2022/12/22 09:49:31;;;;;;;31.63;15.70;;;10.00;99.90;;;;;;4986177;28;20041;-81
2022/12/22 09:52:01;;;;;;;33.20;16.13;;;10.10;99.90;;;;;;4987720;28;20037;-82
2022/12/22 09:54:26;;;;;;;33.75;16.27;;;10.10;99.90;;;;;;4987091;28;20042;-82
2022/12/22 09:56:52;;;;;;;49.78;22.70;;;10.20;99.90;;;;;;4987795;28;20053;-82
2022/12/22 09:59:19;;;;;;;60.25;26.73;;;10.20;99.90;;;;;;5002867;28;20036;-82
2022/12/22 10:01:59;;;;;;;56.40;25.67;;;10.20;99.90;;;;;;4982916;28;20038;-82
2022/12/22 10:04:58;;;;;;;36.85;18.88;;;10.20;99.90;;;;;;4985124;28;20034;-82
2022/12/22 10:07:38;;;;;;;53.55;27.40;;;10.20;99.90;;;;;;5004822;28;20216;-82
2022/12/22 10:10:16;;;;;;;58.45;26.52;;;10.20;99.90;;;;;;4977065;28;20447;-82
2022/12/22 10:12:41;;;;;;;72.72;30.75;;;10.20;99.90;;;;;;4994651;28;20081;-83
2022/12/22 10:15:09;;;;;;;63.55;30.65;;;10.20;99.90;;;;;;4997653;28;20030;-82
2022/12/22 10:17:37;;;;;;;49.15;23.88;;;10.20;99.90;;;;;;4994764;28;20518;-82
2022/12/22 10:20:20;;;;;;;52.20;26.08;;;10.20;99.90;;;;;;4962766;28;20092;-82
2022/12/22 10:22:49;;;;;;;30.42;15.07;;;10.20;99.90;;;;;;4980513;28;20038;-82
2022/12/22 10:25:42;;;;;;;41.80;22.83;;;10.10;99.90;;;;;;5007901;28;20458;-82
2022/12/22 10:28:11;;;;;;;33.20;19.35;;;10.10;99.90;;;;;;4993607;28;20513;-82
2022/12/22 10:30:37;;;;;;;29.80;16.77;;;10.00;99.90;;;;;;4987363;28;20176;-82
2022/12/22 10:33:04;;;;;;;31.90;16.92;;;10.00;99.90;;;;;;4988259;28;20045;-82
2022/12/22 10:35:49;;;;;;;31.52;18.77;;;10.00;99.90;;;;;;5004065;28;20030;-82
2022/12/22 10:38:24;;;;;;;25.77;15.35;;;9.90;99.90;;;;;;5001016;28;20322;-82
2022/12/22 10:40:53;;;;;;;32.33;18.87;;;9.90;99.90;;;;;;4986074;28;20030;-82
2022/12/22 10:43:26;;;;;;;29.75;17.15;;;9.90;99.90;;;;;;4985014;28;20030;-82
2022/12/22 10:45:51;;;;;;;33.88;16.38;;;9.90;99.90;;;;;;4980157;28;20073;-82
2022/12/22 10:48:23;;;;;;;34.63;18.60;;;9.90;99.90;;;;;;4971266;28;20455;-83
2022/12/22 10:50:49;;;;;;;31.75;18.75;;;9.80;99.90;;;;;;4987189;28;20038;-82
2022/12/22 10:53:14;;;;;;;29.52;16.83;;;9.80;99.90;;;;;;4987301;28;20045;-82
2022/12/22 10:55:40;;;;;;;33.38;17.85;;;9.80;99.90;;;;;;4967452;28;20045;-82
2022/12/22 10:58:08;;;;;;;34.63;19.08;;;9.80;99.90;;;;;;4998433;28;20127;-83
2022/12/22 11:00:34;;;;;;;30.95;18.13;;;9.80;99.90;;;;;;4997817;28;20038;-82
2022/12/22 11:03:00;;;;;;;30.88;19.15;;;9.80;99.90;;;;;;4994577;28;20550;-82
2022/12/22 11:05:26;;;;;;;28.67;16.35;;;9.80;99.90;;;;;;5005827;28;20063;-82
2022/12/22 11:07:52;;;;;;;33.97;17.33;;;9.90;99.90;;;;;;4988100;28;20541;-83
2022/12/22 11:10:35;;;;;;;39.00;22.23;;;10.00;99.90;;;;;;4988354;28;20030;-83
2022/12/22 11:13:32;;;;;;;40.58;22.55;;;9.90;99.90;;;;;;4988504;28;20041;-83
2022/12/22 11:16:01;;;;;;;;;;;10.00;99.90;;;;;;4993403;28;20034;-83
2022/12/22 11:18:49;;;;;;;26.35;14.23;;;10.10;99.90;;;;;;5001740;28;19921;-83
2022/12/22 11:21:20;;;;;;;26.95;15.55;;;10.10;99.90;;;;;;4986323;28;20518;-83
2022/12/22 11:24:31;;;;;;;25.23;11.63;;;10.10;99.90;;;;;;4988696;28;20112;-83
2022/12/22 11:27:33;;;;;;;30.92;15.13;;;10.20;99.90;;;;;;4907528;29;20050;-84
2022/12/22 11:30:20;;;;;;;15.82;7.32;;;10.40;99.90;;;;;;4904789;29;20042;-84
2022/12/22 11:32:55;;;;;;;28.20;13.65;;;10.50;99.90;;;;;;4985389;28;20493;-83
2022/12/22 11:35:25;;;;;;;30.77;15.55;;;10.70;99.90;;;;;;5005953;28;20108;-84
2022/12/22 11:38:04;;;;;;;29.45;14.18;;;10.70;99.90;;;;;;4990764;28;20045;-86
2022/12/22 11:40:47;;;;;;;15.18;8.15;;;10.80;99.90;;;;;;4992336;28;20037;-83
2022/12/22 11:43:22;;;;;;;24.98;10.93;;;10.90;99.90;;;;;;4985902;28;20550;-83
2022/12/22 11:46:10;;;;;;;26.20;11.80;;;10.90;99.90;;;;;;4997976;28;20535;-83
2022/12/22 11:49:13;;;;;;;23.83;13.00;;;11.00;99.90;;;;;;5010880;28;20437;-83
2022/12/22 11:51:50;;;;;;;15.90;7.10;;;10.80;99.90;;;;;;4980599;28;20034;-82
2022/12/22 11:54:34;;;;;;;18.55;9.63;;;10.90;99.90;;;;;;5006625;28;20061;-83
2022/12/22 11:57:18;;;;;;;26.10;11.23;;;10.90;99.90;;;;;;5004015;28;20085;-83
2022/12/22 11:59:48;;;;;;;25.30;13.02;;;11.00;99.90;;;;;;5018631;28;20426;-83
2022/12/22 12:02:41;;;;;;;28.05;12.75;;;10.90;99.90;;;;;;4987672;28;20037;-83
2022/12/22 12:05:25;;;;;;;22.63;12.38;;;11.00;99.90;;;;;;5020741;28;20042;-83
2022/12/22 12:08:31;;;;;;;26.17;13.13;;;11.00;99.90;;;;;;5021862;28;20037;-83
2022/12/22 12:11:07;;;;;;;27.40;12.40;;;10.70;99.90;;;;;;5012325;28;20114;-83
2022/12/22 12:13:42;;;;;;;23.02;12.32;;;10.80;99.90;;;;;;5000604;28;20449;-83
2022/12/22 12:16:08;;;;;;;22.47;11.83;;;10.70;99.90;;;;;;4987332;28;20485;-82
2022/12/22 12:18:39;;;;;;;24.58;12.40;;;11.00;99.90;;;;;;5006911;28;20272;-82
2022/12/22 12:21:25;;;;;;;19.85;10.68;;;11.20;99.90;;;;;;5005855;28;20112;-83
2022/12/22 12:24:21;;;;;;;12.55;6.93;;;11.10;99.90;;;;;;5002724;28;20049;-82
2022/12/22 12:26:49;;;;;;;22.60;10.63;;;11.20;99.90;;;;;;5005676;28;20026;-82
2022/12/22 12:29:20;;;;;;;17.95;8.70;;;11.40;99.90;;;;;;5003627;28;20030;-82
2022/12/22 12:31:56;;;;;;;15.73;7.68;;;11.50;99.90;;;;;;4987265;28;20038;-82
2022/12/22 12:34:22;;;;;;;18.55;9.07;;;11.40;99.90;;;;;;4987038;28;20374;-82
2022/12/22 12:36:57;;;;;;;17.75;9.85;;;11.20;99.90;;;;;;4998789;28;20034;-81
2022/12/22 12:39:31;;;;;;;18.60;8.75;;;11.00;99.90;;;;;;4990263;28;20493;-82
2022/12/22 12:42:17;;;;;;;6.60;3.92;;;11.10;99.90;;;;;;4998257;28;20037;-83
2022/12/22 12:44:43;;;;;;;;;;;10.90;99.90;;;;;;4996755;28;20053;-82
2022/12/22 12:47:26;;;;;;;11.83;5.30;;;11.00;99.90;;;;;;4982830;28;19918;-82
2022/12/22 12:50:14;;;;;;;12.43;6.22;;;10.80;99.90;;;;;;4987614;28;20045;-82
2022/12/22 12:52:39;;;;;;;16.75;9.50;;;10.70;99.90;;;;;;5004269;28;20038;-82
2022/12/22 12:55:25;;;;;;;16.17;9.43;;;10.70;99.90;;;;;;5009567;28;20040;-82
2022/12/22 12:57:51;;;;;;;14.00;5.13;;;10.80;99.90;;;;;;5003529;28;20072;-83
2022/12/22 13:00:32;;;;;;;8.77;5.50;;;10.60;99.90;;;;;;4999901;28;20030;-82
2022/12/22 13:03:01;;;;;;;11.95;6.35;;;10.70;99.90;;;;;;4996944;28;20319;-82
2022/12/22 13:05:32;;;;;;;20.48;11.65;;;10.70;99.90;;;;;;4992121;28;20524;-82
2022/12/22 13:08:13;;;;;;;18.02;9.25;;;10.80;99.90;;;;;;4965354;28;20038;-82
2022/12/22 13:10:44;;;;;;;12.18;6.40;;;10.80;99.90;;;;;;4981289;28;20048;-82
2022/12/22 13:13:33;;;;;;;16.15;9.40;;;10.70;99.90;;;;;;5006811;28;20121;-82
2022/12/22 13:15:59;;;;;;;21.98;9.68;;;10.80;99.90;;;;;;4996192;28;20096;-82
2022/12/22 13:18:24;;;;;;;19.42;9.93;;;10.70;99.90;;;;;;4994864;28;20030;-82
2022/12/22 13:20:58;;;;;;;18.30;9.73;;;10.80;99.90;;;;;;5006487;28;20041;-82
2022/12/22 13:23:39;;;;;;;18.10;10.10;;;10.80;99.90;;;;;;4979654;28;20490;-82
2022/12/22 13:26:15;;;;;;;19.08;9.85;;;10.90;99.90;;;;;;4986829;28;20092;-82
2022/12/22 13:28:41;;;;;;;18.20;7.97;;;10.80;99.90;;;;;;4989714;28;20045;-82
2022/12/22 13:31:22;;;;;;;18.73;10.55;;;10.70;99.90;;;;;;4987670;28;20381;-82
2022/12/22 13:34:05;;;;;;;13.48;8.35;;;10.70;99.90;;;;;;4982912;28;20030;-82
2022/12/22 13:36:31;;;;;;;15.15;7.38;;;10.60;99.90;;;;;;4994986;28;20402;-81
2022/12/22 13:39:02;;;;;;;12.80;8.38;;;10.60;99.90;;;;;;4973784;28;20041;-81
2022/12/22 13:41:28;;;;;;;12.82;6.03;;;10.60;99.90;;;;;;5000082;28;20037;-81
2022/12/22 13:43:56;;;;;;;23.92;12.93;;;10.60;99.90;;;;;;4975553;28;20031;-82
2022/12/22 13:46:24;;;;;;;20.63;10.77;;;10.50;99.90;;;;;;4955156;28;20069;-82
2022/12/22 13:48:49;;;;;;;19.70;10.27;;;10.50;99.90;;;;;;4988426;28;20044;-82
2022/12/22 13:51:31;;;;;;;21.38;12.70;;;10.50;99.90;;;;;;4986867;28;20569;-82
2022/12/22 13:54:02;;;;;;;21.48;12.43;;;10.60;99.90;;;;;;5018741;28;20064;-82
2022/12/22 13:56:55;;;;;;;17.45;10.05;;;10.60;99.90;;;;;;5001639;28;20419;-82
2022/12/22 13:59:27;;;;;;;22.10;10.82;;;10.60;99.90;;;;;;5005766;28;20096;-82
2022/12/22 14:02:12;;;;;;;22.30;12.20;;;10.40;99.90;;;;;;4988377;28;20801;-82
2022/12/22 14:04:39;;;;;;;21.17;12.40;;;10.50;99.90;;;;;;5000257;28;20502;-81
2022/12/22 14:07:18;;;;;;;18.33;10.38;;;10.60;99.90;;;;;;4982696;28;20739;-82
2022/12/22 14:09:45;;;;;;;20.08;9.80;;;10.60;99.90;;;;;;4987804;28;20092;-81
2022/12/22 14:12:30;;;;;;;19.85;10.93;;;10.60;99.90;;;;;;4984016;28;20096;-81
2022/12/22 14:14:56;;;;;;;16.58;9.52;;;10.50;99.90;;;;;;4964762;28;20044;-82
2022/12/22 14:17:24;;;;;;;19.10;11.82;;;10.50;99.90;;;;;;4986175;28;20083;-82
2022/12/22 14:19:55;;;;;;;14.27;9.85;;;10.40;99.90;;;;;;4980052;28;20038;-82
2022/12/22 14:22:42;;;;;;;15.90;10.60;;;10.30;99.90;;;;;;4985008;28;20501;-82
2022/12/22 14:25:22;;;;;;;16.70;9.40;;;10.30;99.90;;;;;;4997208;28;20443;-82
2022/12/22 14:27:49;;;;;;;13.13;7.93;;;10.50;99.90;;;;;;4990788;28;20049;-81
2022/12/22 14:30:19;;;;;;;15.90;8.25;;;10.40;99.90;;;;;;4994216;28;20147;-81
2022/12/22 14:32:47;;;;;;;19.95;9.13;;;10.30;99.90;;;;;;4967047;28;20037;-81
2022/12/22 14:35:20;;;;;;;15.75;9.57;;;10.30;99.90;;;;;;4977102;28;20030;-81
2022/12/22 14:37:49;;;;;;;17.90;9.70;;;10.30;99.90;;;;;;4987341;28;20137;-80
2022/12/22 14:40:31;;;;;;;14.45;9.05;;;10.30;99.90;;;;;;4979278;28;20156;-80
2022/12/22 14:42:57;;;;;;;16.60;8.70;;;10.30;99.90;;;;;;4994391;28;20079;-82
2022/12/22 14:45:22;;;;;;;13.82;8.65;;;10.30;99.90;;;;;;4996396;28;20201;-82
2022/12/22 14:47:48;;;;;;;13.40;8.93;;;10.20;99.90;;;;;;4975612;28;20109;-84
2022/12/22 14:50:17;;;;;;;13.77;8.68;;;10.20;99.90;;;;;;4984019;28;20038;-82
2022/12/22 14:52:57;;;;;;;14.27;7.53;;;10.20;99.90;;;;;;4993104;28;20977;-81
2022/12/22 14:55:29;;;;;;;14.60;6.97;;;10.20;99.90;;;;;;4987431;28;20489;-81
2022/12/22 14:58:09;;;;;;;14.25;7.82;;;10.20;99.90;;;;;;4993942;28;20087;-81
2022/12/22 15:00:39;;;;;;;14.73;7.47;;;10.10;99.90;;;;;;4985116;28;20022;-81
2022/12/22 15:03:24;;;;;;;15.18;8.00;;;10.10;99.90;;;;;;4983743;28;20026;-81
2022/12/22 15:05:50;;;;;;;13.27;8.82;;;10.10;99.90;;;;;;5007980;28;20046;-81
2022/12/22 15:08:38;;;;;;;19.00;10.00;;;10.10;99.90;;;;;;5007113;28;20412;-81
2022/12/22 15:11:11;;;;;;;15.35;8.95;;;10.00;99.90;;;;;;4993346;28;20029;-81
2022/12/22 15:13:36;;;;;;;13.27;8.27;;;10.00;99.90;;;;;;4986830;28;20033;-81
2022/12/22 15:16:02;;;;;;;14.80;8.80;;;9.90;99.90;;;;;;5007484;28;20305;-81
2022/12/22 15:18:28;;;;;;;16.38;9.63;;;9.90;99.90;;;;;;4990009;28;20645;-81
2022/12/22 15:20:54;;;;;;;14.55;8.90;;;9.80;99.90;;;;;;4998580;28;20040;-82
2022/12/22 15:23:20;;;;;;;19.50;11.48;;;9.80;99.90;;;;;;4987074;28;20034;-81
2022/12/22 15:25:45;;;;;;;13.35;8.25;;;9.70;99.90;;;;;;4992135;28;20042;-82
2022/12/22 15:28:11;;;;;;;13.85;9.43;;;9.70;99.90;;;;;;4987018;28;20456;-81
2022/12/22 15:30:36;;;;;;;15.40;8.95;;;9.70;99.90;;;;;;4990829;28;20375;-82
2022/12/22 15:33:02;;;;;;;18.25;10.07;;;9.70;99.90;;;;;;5002176;28;20112;-82
2022/12/22 15:35:32;;;;;;;17.10;9.30;;;9.60;99.90;;;;;;4987523;28;20375;-82
2022/12/22 15:37:58;;;;;;;18.83;9.23;;;9.50;99.90;;;;;;4986574;28;20033;-81
2022/12/22 15:40:24;;;;;;;22.23;11.65;;;9.40;99.90;;;;;;4983285;28;20037;-82
2022/12/22 15:42:49;;;;;;;16.08;9.65;;;9.40;99.90;;;;;;4976694;28;20072;-81
2022/12/22 15:45:16;;;;;;;13.70;9.00;;;9.50;99.90;;;;;;5012401;28;20104;-81
2022/12/22 15:47:44;;;;;;;17.05;10.60;;;9.40;99.90;;;;;;4977648;28;20054;-82
2022/12/22 15:50:18;;;;;;;15.60;9.00;;;9.50;99.90;;;;;;4974538;28;20040;-82
2022/12/22 15:53:02;;;;;;;17.20;9.40;;;9.40;99.90;;;;;;4989299;28;20414;-82
2022/12/22 15:55:28;;;;;;;16.23;9.10;;;9.30;99.90;;;;;;4970166;28;20034;-81
2022/12/22 15:57:55;;;;;;;16.08;8.43;;;9.20;99.90;;;;;;4992957;28;20053;-81
2022/12/22 16:00:21;;;;;;;15.27;8.95;;;9.30;99.90;;;;;;4994315;28;20027;-81
2022/12/22 16:02:47;;;;;;;15.68;8.15;;;9.30;99.90;;;;;;4981978;28;20041;-82
2022/12/22 16:05:12;;;;;;;15.15;9.07;;;9.30;99.90;;;;;;4970821;28;20042;-82
2022/12/22 16:07:39;;;;;;;11.07;7.90;;;9.30;99.90;;;;;;4978328;28;20124;-82
2022/12/22 16:10:25;;;;;;;13.63;8.43;;;9.30;99.90;;;;;;4990674;28;20080;-81
2022/12/22 16:12:59;;;;;;;11.18;7.03;;;9.30;99.90;;;;;;4990071;28;20056;-82
2022/12/22 16:15:26;;;;;;;14.60;7.70;;;9.40;99.90;;;;;;4992290;28;20482;-82
2022/12/22 16:17:51;;;;;;;12.82;8.50;;;9.30;99.90;;;;;;5001130;28;20042;-82
2022/12/22 16:20:17;;;;;;;15.60;8.50;;;9.20;99.90;;;;;;5002965;28;20025;-82
2022/12/22 16:22:43;;;;;;;10.82;7.57;;;9.20;99.90;;;;;;4990800;28;20741;-82
2022/12/22 16:25:17;;;;;;;14.30;9.38;;;9.20;99.90;;;;;;4988201;28;20040;-83
2022/12/22 16:27:46;;;;;;;13.60;8.57;;;9.20;99.90;;;;;;4987494;28;20050;-83
2022/12/22 16:30:16;;;;;;;14.43;8.80;;;9.10;99.90;;;;;;5001788;28;20037;-83
2022/12/22 16:32:43;;;;;;;16.10;8.82;;;9.10;99.90;;;;;;5003936;28;20112;-83
2022/12/22 16:35:08;;;;;;;15.27;9.40;;;9.10;99.90;;;;;;5001816;28;20033;-83
2022/12/22 16:37:37;;;;;;;15.88;10.43;;;9.10;99.90;;;;;;5008611;28;20037;-84